Time;durP1;ratioP1;P1;durP2;ratioP2;P2;SDS_P1;SDS_P2;PMS_P1;PMS_P2;Temp;Humidity;BMP_temperature;BMP_pressure;BME280_temperature;BME280_humidity;BME280_pressure;Samples;Min_cycle;Max_cycle;Signal;HPM_P1;HPM_P2
2022/06/03 00:01:50;;;;;;;2.83;1.98;;;;;;;17.44;48.74;96808.03;4957009;29;20051;-80
2022/06/03 00:04:37;;;;;;;1.85;1.70;;;;;;;17.40;48.69;96799.75;4957507;29;20059;-80
2022/06/03 00:07:28;;;;;;;2.42;1.90;;;;;;;17.40;48.80;96797.09;4958653;29;20055;-80
2022/06/03 00:10:14;;;;;;;2.08;1.88;;;;;;;17.40;48.64;96793.66;4956328;29;20092;-80
2022/06/03 00:12:51;;;;;;;3.25;1.73;;;;;;;17.37;48.88;96796.75;4956516;29;20078;-80
2022/06/03 00:15:50;;;;;;;3.03;2.25;;;;;;;17.35;48.84;96791.69;4956847;29;20072;-79
2022/06/03 00:18:48;;;;;;;2.05;1.90;;;;;;;17.33;48.87;96785.03;4956670;29;20116;-79
2022/06/03 00:21:36;;;;;;;3.22;1.65;;;;;;;17.33;48.91;96788.47;4958499;29;20046;-79
2022/06/03 00:24:15;;;;;;;5.47;1.63;;;;;;;17.36;48.84;96788.03;4956461;29;20126;-80
2022/06/03 00:27:04;;;;;;;2.25;2.05;;;;;;;17.34;48.88;96782.19;4956251;29;20056;-79
2022/06/03 00:29:51;;;;;;;2.58;2.10;;;;;;;17.30;49.02;96779.16;4955929;29;20352;-79
2022/06/03 00:32:52;;;;;;;1.95;1.75;;;;;;;17.24;49.15;96769.50;4955869;29;20067;-79
2022/06/03 00:35:42;;;;;;;2.15;1.73;;;;;;;17.17;49.27;96776.69;4959245;28;20090;-79
2022/06/03 00:38:29;;;;;;;4.45;1.60;;;;;;;17.16;49.35;96782.97;4959892;28;20052;-81
2022/06/03 00:41:14;;;;;;;2.20;2.00;;;;;;;17.12;49.52;96775.72;4953255;29;20082;-79
2022/06/03 00:43:58;;;;;;;2.15;1.70;;;;;;;17.07;49.67;96765.84;4952758;29;20529;-81
2022/06/03 00:46:44;;;;;;;4.80;2.15;;;;;;;17.06;49.89;96772.94;4954577;29;20071;-79
2022/06/03 00:49:30;;;;;;;4.00;2.83;;;;;;;17.05;50.06;96775.78;4957077;29;20039;-80
2022/06/03 00:52:16;;;;;;;4.22;2.05;;;;;;;17.07;50.12;96774.53;4954449;29;20052;-81
2022/06/03 00:55:20;;;;;;;2.42;2.03;;;;;;;17.09;50.09;96772.50;4955264;29;20039;-80
2022/06/03 00:58:23;;;;;;;2.20;1.98;;;;;;;17.09;50.11;96767.22;4957034;29;20055;-80
2022/06/03 01:01:05;;;;;;;2.15;1.95;;;;;;;17.08;50.21;96770.09;4943212;29;20071;-80
2022/06/03 01:03:43;;;;;;;2.20;2.00;;;;;;;17.03;50.21;96768.13;4955005;29;20058;-80
2022/06/03 01:06:29;;;;;;;2.20;2.08;;;;;;;17.02;50.33;96768.31;4957982;29;20078;-79
2022/06/03 01:09:27;;;;;;;2.88;2.22;;;;;;;16.99;50.13;96756.41;4954987;29;20051;-80
2022/06/03 01:12:10;;;;;;;4.03;2.17;;;;;;;17.00;50.21;96765.09;4956454;29;20060;-80
2022/06/03 01:15:01;;;;;;;4.65;2.78;;;;;;;16.95;50.82;96764.97;4956348;29;20082;-79
2022/06/03 01:17:36;;;;;;;2.50;2.13;;;;;;;16.88;51.19;96776.34;4952924;29;20075;-81
2022/06/03 01:20:17;;;;;;;2.92;2.63;;;;;;;16.83;51.70;96776.19;4954069;29;20051;-79
2022/06/03 01:23:31;;;;;;;2.72;2.50;;;;;;;16.80;51.43;96763.47;4953048;29;20079;-80
2022/06/03 01:26:17;;;;;;;2.38;2.17;;;;;;;16.79;51.75;96769.75;4954042;29;20056;-80
2022/06/03 01:29:22;;;;;;;3.95;2.50;;;;;;;16.76;51.73;96766.72;4953603;29;20185;-79
2022/06/03 01:32:27;;;;;;;2.60;2.33;;;;;;;16.73;51.86;96775.06;4983791;23;20071;-78
2022/06/03 01:35:39;;;;;;;2.95;2.58;;;;;;;16.70;51.96;96773.66;4962595;29;20130;-80
2022/06/03 01:38:23;;;;;;;4.22;2.80;;;;;;;16.67;52.14;96769.63;4921015;29;20469;-77
2022/06/03 01:41:06;;;;;;;2.90;2.60;;;;;;;16.65;52.20;96773.50;4957907;28;20150;-79
2022/06/03 01:43:50;;;;;;;2.88;2.55;;;;;;;16.66;52.09;96764.56;4957888;29;20143;-78
2022/06/03 01:46:27;;;;;;;3.10;2.80;;;;;;;16.63;52.38;96763.16;4959899;29;20051;-79
2022/06/03 01:49:34;;;;;;;3.63;2.60;;;;;;;16.62;52.27;96760.78;4958872;29;20055;-77
2022/06/03 01:52:44;;;;;;;2.80;2.60;;;;;;;16.60;52.29;96757.53;4958064;29;20150;-77
2022/06/03 01:55:40;;;;;;;2.72;2.53;;;;;;;16.57;52.61;96750.06;4959197;29;20480;-79
2022/06/03 01:58:39;;;;;;;7.50;3.00;;;;;;;16.56;52.76;96751.09;4958887;29;20063;-79
2022/06/03 02:01:24;;;;;;;3.00;2.70;;;;;;;16.56;52.86;96754.53;4933773;29;20062;-77
2022/06/03 02:04:21;;;;;;;3.05;2.67;;;;;;;16.56;52.83;96748.47;4958362;29;20078;-78
2022/06/03 02:07:14;;;;;;;3.33;2.60;;;;;;;16.54;53.02;96745.25;4957141;29;20126;-78
2022/06/03 02:10:21;;;;;;;6.03;3.00;;;;;;;16.53;52.79;96735.72;4958182;28;20079;-77
2022/06/03 02:13:08;;;;;;;2.75;2.40;;;;;;;16.51;52.95;96740.38;4945547;29;20561;-78
2022/06/03 02:16:24;;;;;;;3.10;2.58;;;;;;;16.51;53.05;96737.75;4958026;29;20055;-78
2022/06/03 02:19:23;;;;;;;7.78;3.53;;;;;;;16.50;53.12;96738.78;4899039;29;20063;-77
2022/06/03 02:22:13;;;;;;;3.22;2.75;;;;;;;16.49;53.16;96737.97;4959532;28;20111;-79
2022/06/03 02:24:56;;;;;;;8.65;3.38;;;;;;;16.51;53.19;96751.75;4964169;29;20061;-79
2022/06/03 02:27:48;;;;;;;5.40;3.20;;;;;;;16.48;53.16;96747.69;4969344;29;20074;-77
2022/06/03 02:30:49;;;;;;;4.07;2.70;;;;;;;16.51;53.23;96751.75;4963605;28;20134;-79
2022/06/03 02:33:40;;;;;;;2.88;2.67;;;;;;;16.52;53.10;96744.66;4954043;29;20837;-77
2022/06/03 02:36:56;;;;;;;2.58;2.40;;;;;;;16.53;52.83;96749.69;4964284;29;20086;-79
2022/06/03 02:39:47;;;;;;;3.28;3.05;;;;;;;16.54;53.10;96737.34;4963376;29;20074;-80
2022/06/03 02:42:45;;;;;;;3.08;2.88;;;;;;;16.56;52.83;96730.03;4964099;29;20048;-77
2022/06/03 02:46:02;;;;;;;3.38;2.80;;;;;;;16.58;52.97;96723.53;4961600;29;20047;-79
2022/06/03 02:48:51;;;;;;;4.55;3.05;;;;;;;16.59;52.89;96724.31;4937473;29;20098;-77
2022/06/03 02:51:46;;;;;;;3.08;2.88;;;;;;;16.58;52.91;96730.63;4965096;28;20126;-77
2022/06/03 02:54:42;;;;;;;5.30;2.60;;;;;;;16.58;52.60;96720.09;4964303;29;20051;-76
2022/06/03 02:57:48;;;;;;;5.47;2.97;;;;;;;16.58;52.60;96728.78;4961835;29;20052;-77
2022/06/03 03:00:21;;;;;;;5.03;2.70;;;;;;;16.61;52.73;96738.06;4937061;28;20474;-77
2022/06/03 03:03:22;;;;;;;3.53;3.20;;;;;;;16.63;52.86;96746.56;4962131;29;20123;-79
2022/06/03 03:06:25;;;;;;;4.22;2.75;;;;;;;16.64;52.56;96735.81;4965192;29;20154;-78
2022/06/03 03:09:13;;;;;;;6.07;2.83;;;;;;;16.68;52.46;96744.06;4960171;28;20051;-77
2022/06/03 03:12:02;;;;;;;2.92;2.70;;;;;;;16.72;52.72;96741.81;4960272;28;20047;-78
2022/06/03 03:14:48;;;;;;;4.35;2.85;;;;;;;16.76;52.51;96751.72;4961275;29;20074;-79
2022/06/03 03:17:38;;;;;;;2.83;2.63;;;;;;;16.79;52.49;96753.94;4961512;29;20059;-77
2022/06/03 03:20:38;;;;;;;3.22;2.90;;;;;;;16.84;52.65;96755.94;4960638;28;20047;-78
2022/06/03 03:23:26;;;;;;;4.72;3.00;;;;;;;16.85;52.21;96752.28;4931911;29;20055;-78
2022/06/03 03:26:07;;;;;;;3.60;3.10;;;;;;;16.85;52.39;96754.91;4963228;29;20055;-78
2022/06/03 03:29:00;;;;;;;3.53;2.80;;;;;;;16.90;52.24;96752.41;4972773;29;20051;-80
2022/06/03 03:31:37;;;;;;;;;;;;;;;16.94;51.76;96753.59;4952573;28;20138;-79
2022/06/03 03:34:24;;;;;;;4.18;2.95;;;;;;;16.94;51.96;96760.69;4961764;28;19922;-79
2022/06/03 03:37:35;;;;;;;3.20;3.00;;;;;;;16.93;51.90;96754.63;4961691;29;20070;-80
2022/06/03 03:40:41;;;;;;;3.05;2.85;;;;;;;16.91;51.86;96761.16;4964117;28;20138;-80
2022/06/03 03:43:23;;;;;;;3.00;2.70;;;;;;;16.89;51.93;96756.88;4961956;29;20154;-78
2022/06/03 03:46:27;;;;;;;3.20;3.00;;;;;;;16.94;51.91;96752.78;4960605;29;20079;-77
2022/06/03 03:49:22;;;;;;;3.35;3.00;;;;;;;16.94;51.83;96742.25;4939330;29;20059;-79
2022/06/03 03:52:05;;;;;;;2.65;2.42;;;;;;;16.96;51.84;96740.19;4959886;28;20047;-79
2022/06/03 03:55:15;;;;;;;3.22;2.92;;;;;;;16.99;52.05;96750.28;4961254;29;20445;-78
2022/06/03 03:58:18;;;;;;;2.60;2.40;;;;;;;17.04;52.31;96753.91;4960083;29;20086;-77
2022/06/03 04:01:34;;;;;;;4.07;2.70;;;;;;;17.09;52.06;96745.34;4936029;28;20051;-80
2022/06/03 04:04:53;;;;;;;5.40;2.92;;;;;;;17.09;51.52;96758.50;4962040;29;20051;-79
2022/06/03 04:07:35;;;;;;;4.00;3.00;;;;;;;17.03;51.15;96746.19;4919182;29;20131;-79
2022/06/03 04:10:29;;;;;;;4.32;2.60;;;;;;;16.98;51.37;96748.69;4964163;28;20106;-78
2022/06/03 04:13:27;;;;;;;2.47;2.20;;;;;;;16.97;51.85;96742.63;4961492;29;20142;-79
2022/06/03 04:16:22;;;;;;;2.50;2.30;;;;;;;16.98;51.44;96752.13;4963753;29;20134;-79
2022/06/03 04:19:32;;;;;;;3.10;2.65;;;;;;;16.97;51.44;96747.09;4961842;29;20128;-76
2022/06/03 04:22:16;;;;;;;4.68;3.35;;;;;;;16.95;51.58;96754.41;4956435;29;20416;-77
2022/06/03 04:25:21;;;;;;;6.45;2.72;;;;;;;16.94;51.63;96748.31;4959932;29;20059;-78
2022/06/03 04:28:25;;;;;;;4.55;3.47;;;;;;;16.91;51.85;96753.25;4960243;29;20069;-79
2022/06/03 04:31:36;;;;;;;3.63;3.10;;;;;;;16.88;51.95;96755.28;4959304;28;20182;-79
2022/06/03 04:34:54;;;;;;;3.05;2.70;;;;;;;16.88;51.95;96757.91;4959179;29;20437;-77
2022/06/03 04:37:57;;;;;;;5.05;3.25;;;;;;;16.87;52.26;96758.94;4958984;29;20057;-78
2022/06/03 04:41:04;;;;;;;3.95;3.47;;;;;;;16.85;52.12;96753.06;4939193;29;20090;-79
2022/06/03 04:44:25;;;;;;;5.03;2.67;;;;;;;16.84;52.07;96754.09;4956311;29;20051;-77
2022/06/03 04:47:38;;;;;;;7.93;3.20;;;;;;;16.83;52.23;96751.69;4958690;29;20054;-79
2022/06/03 04:50:39;;;;;;;4.75;3.22;;;;;;;16.85;52.33;96755.69;4951046;29;20118;-78
2022/06/03 04:53:42;;;;;;;3.45;3.13;;;;;;;16.87;52.42;96760.75;4958189;29;20075;-77
2022/06/03 04:56:50;;;;;;;3.20;2.90;;;;;;;16.92;52.05;96760.09;4958628;29;20750;-79
2022/06/03 04:59:57;;;;;;;4.03;3.08;;;;;;;16.95;52.00;96755.22;4958601;29;20055;-77
2022/06/03 05:03:14;;;;;;;6.07;3.40;;;;;;;17.00;52.10;96751.94;4961183;29;20047;-79
2022/06/03 05:06:34;;;;;;;4.95;3.25;;;;;;;17.02;52.22;96755.94;4957705;29;20131;-80
2022/06/03 05:09:44;;;;;;;3.65;3.33;;;;;;;17.03;52.19;96743.56;4902216;29;20059;-77
2022/06/03 05:12:54;;;;;;;3.42;3.08;;;;;;;17.03;52.00;96736.50;4906956;29;20522;-81
2022/06/03 05:16:04;;;;;;;4.63;3.88;;;;;;;17.02;52.29;96732.22;4935703;28;20130;-78
2022/06/03 05:19:21;;;;;;;5.43;3.22;;;;;;;17.03;52.17;96733.03;4956232;28;20082;-80
2022/06/03 05:22:22;;;;;;;7.85;2.80;;;;;;;17.04;52.41;96737.28;4966246;28;20523;-77
2022/06/03 05:25:19;;;;;;;4.90;3.03;;;;;;;17.11;52.46;96745.91;4966407;28;20083;-79
2022/06/03 05:28:19;;;;;;;7.25;3.25;;;;;;;17.17;52.05;96741.63;4972421;28;20047;-80
2022/06/03 05:31:25;;;;;;;3.30;2.50;;;;;;;17.21;51.73;96733.03;4981054;28;20110;-78
2022/06/03 05:34:10;;;;;;;4.38;2.90;;;;;;;17.24;52.09;96727.31;4957533;29;20051;-77
2022/06/03 05:37:14;;;;;;;3.72;3.15;;;;;;;17.31;51.91;96740.41;4964839;28;20579;-80
2022/06/03 05:40:06;;;;;;;11.18;2.88;;;;;;;17.37;51.82;96736.09;4950055;29;20047;-79
2022/06/03 05:43:00;;;;;;;10.55;3.38;;;;;;;17.40;52.09;96741.72;4961382;29;20051;-80
2022/06/03 05:45:48;;;;;;;4.38;3.00;;;;;;;17.44;52.10;96742.09;4958948;29;20047;-76
2022/06/03 05:48:24;;;;;;;3.78;3.47;;;;;;;17.46;52.06;96740.03;4962437;29;20130;-82
2022/06/03 05:50:58;;;;;;;3.97;2.83;;;;;;;17.49;52.09;96735.16;4963299;29;20055;-79
2022/06/03 05:53:38;;;;;;;3.90;2.88;;;;;;;17.54;52.06;96736.31;4973349;28;20106;-79
2022/06/03 05:56:34;;;;;;;9.70;3.35;;;;;;;17.60;52.37;96741.50;4971097;28;20081;-83
2022/06/03 05:59:12;;;;;;;10.15;3.20;;;;;;;17.64;52.22;96740.00;4967524;29;20047;-79
2022/06/03 06:01:49;;;;;;;8.00;3.20;;;;;;;17.70;52.09;96746.22;4965145;28;20058;-78
2022/06/03 06:04:25;;;;;;;2.67;2.47;;;;;;;17.75;51.99;96748.19;4961924;29;20058;-77
2022/06/03 06:07:04;;;;;;;3.72;3.13;;;;;;;17.77;52.23;96740.88;4956186;29;20050;-82
2022/06/03 06:09:44;;;;;;;4.45;3.42;;;;;;;17.79;52.20;96744.88;4967174;29;20058;-81
2022/06/03 06:12:28;;;;;;;5.60;3.33;;;;;;;17.81;52.31;96753.38;4965820;29;20071;-80
2022/06/03 06:15:24;;;;;;;3.58;3.10;;;;;;;17.83;52.47;96750.56;4966118;29;20123;-84
2022/06/03 06:18:01;;;;;;;3.63;3.05;;;;;;;17.85;52.54;96743.22;4966760;29;20075;-80
2022/06/03 06:20:45;;;;;;;5.55;3.25;;;;;;;17.89;52.86;96731.19;4965457;29;20684;-80
2022/06/03 06:23:18;;;;;;;3.63;3.25;;;;;;;17.95;53.01;96729.47;4961999;29;20071;-80
2022/06/03 06:26:09;;;;;;;7.57;3.28;;;;;;;17.99;53.07;96728.81;4964217;29;20082;-79
2022/06/03 06:28:56;;;;;;;3.72;3.15;;;;;;;18.03;53.68;96724.69;4964777;29;20085;-80
2022/06/03 06:31:53;;;;;;;4.47;3.20;;;;;;;18.09;53.64;96725.63;4964623;29;20046;-83
2022/06/03 06:34:40;;;;;;;5.50;3.45;;;;;;;18.17;54.03;96729.75;4964450;29;20070;-80
2022/06/03 06:37:39;;;;;;;4.07;3.42;;;;;;;18.24;54.29;96726.00;4964882;29;20043;-83
2022/06/03 06:40:18;;;;;;;5.05;3.35;;;;;;;18.32;54.60;96732.78;4963875;29;20119;-77
2022/06/03 06:43:00;;;;;;;3.47;3.17;;;;;;;18.38;54.14;96731.88;4947840;29;20087;-79
2022/06/03 06:45:44;;;;;;;8.18;3.30;;;;;;;18.46;54.23;96738.66;4961540;29;20583;-78
2022/06/03 06:48:20;;;;;;;3.70;3.00;;;;;;;18.53;54.03;96737.50;4972155;29;20057;-83
2022/06/03 06:50:53;;;;;;;3.85;3.47;;;;;;;18.60;53.89;96723.38;4968537;29;20048;-78
2022/06/03 06:53:31;;;;;;;4.72;3.22;;;;;;;18.67;53.95;96729.34;4967616;29;20114;-81
2022/06/03 06:56:05;;;;;;;9.13;3.70;;;;;;;18.73;54.19;96723.16;4965952;29;20047;-81
2022/06/03 06:58:43;;;;;;;5.22;3.47;;;;;;;18.82;54.25;96729.72;4968159;29;20098;-83
2022/06/03 07:01:15;;;;;;;6.60;3.53;;;;;;;18.90;54.08;96723.31;4970345;28;20085;-81
2022/06/03 07:03:53;;;;;;;8.00;3.72;;;;;;;18.99;54.16;96723.75;4970749;29;20069;-79
2022/06/03 07:06:31;;;;;;;3.70;3.40;;;;;;;19.07;54.26;96723.41;4970127;29;20047;-79
2022/06/03 07:09:29;;;;;;;3.78;3.47;;;;;;;19.17;54.26;96714.88;4970880;28;20055;-79
2022/06/03 07:12:04;;;;;;;3.20;2.67;;;;;;;19.26;54.42;96716.09;4968971;29;20074;-80
2022/06/03 07:14:36;;;;;;;5.55;3.08;;;;;;;19.35;54.36;96714.72;4971662;29;20111;-79
2022/06/03 07:20:06;;;;;;;3.00;2.67;;;;;;;19.55;54.41;96709.00;4968172;29;20082;-82
2022/06/03 07:22:43;;;;;;;3.60;3.20;;;;;;;19.65;54.79;96706.53;4966587;29;20118;-84
2022/06/03 07:25:21;;;;;;;3.30;3.00;;;;;;;19.75;54.68;96698.03;4967803;29;20063;-82
2022/06/03 07:27:56;;;;;;;8.50;3.30;;;;;;;19.85;54.35;96692.88;4967229;29;20051;-84
2022/06/03 07:33:21;;;;;;;7.43;3.35;;;;;;;20.05;54.45;96695.09;3336602;23;21168;-80
2022/06/03 08:11:04;;;;;;;5.05;2.97;;;;;;;21.52;53.00;96660.25;1310205;26;20060;-81
2022/06/03 08:13:52;;;;;;;2.88;2.20;;;;;;;21.65;52.73;96659.06;5075368;28;20029;-79
2022/06/03 08:22:41;;;;;;;16.10;3.22;;;;;;;22.02;52.00;96655.69;5072256;23;20058;-79
2022/06/03 08:25:23;;;;;;;9.88;3.00;;;;;;;22.13;51.57;96657.34;5035172;28;20046;-81
2022/06/03 08:28:12;;;;;;;;;;;;;;;22.23;51.13;96659.31;5029817;28;20041;-79
2022/06/03 08:30:54;;;;;;;3.78;2.30;;;;;;;22.34;50.92;96662.84;5015075;28;19952;-79
2022/06/03 08:33:47;;;;;;;3.58;2.40;;;;;;;22.46;50.78;96655.50;4999475;28;20050;-79
2022/06/03 08:36:28;;;;;;;4.15;2.47;;;;;;;22.56;50.50;96654.75;5014956;28;20053;-80
2022/06/03 08:39:15;;;;;;;2.42;2.22;;;;;;;22.67;50.46;96652.94;5015410;28;20058;-82
2022/06/03 08:42:31;;;;;;;3.75;2.45;;;;;;;22.81;50.16;96646.13;5014978;28;20130;-79
2022/06/03 08:45:33;;;;;;;2.60;2.40;;;;;;;22.93;49.66;96657.31;4976007;28;20042;-79
2022/06/03 08:48:26;;;;;;;2.35;2.15;;;;;;;23.03;49.18;96653.97;5014848;28;20038;-79
2022/06/03 08:51:08;;;;;;;2.58;2.38;;;;;;;23.15;49.21;96656.38;5121417;23;20081;-80
2022/06/03 08:53:57;;;;;;;5.22;2.42;;;;;;;23.25;48.91;96664.41;4995558;28;20046;-80
2022/06/03 08:56:45;;;;;;;3.20;2.38;;;;;;;23.34;48.82;96657.50;4995558;28;20050;-80
2022/06/03 09:02:28;;;;;;;3.00;2.80;;;;;;;23.55;48.35;96641.56;5040873;23;20073;-79
2022/06/03 09:08:04;;;;;;;3.63;2.10;;;;;;;23.77;48.72;96649.38;2215146;26;20026;-81
2022/06/03 09:13:25;;;;;;;5.38;1.90;;;;;;;23.96;48.17;96645.13;5030188;28;20034;-82
2022/06/03 09:24:44;;;;;;;5.10;2.70;;;;;;;24.47;47.05;96633.63;5294242;23;20039;-80
2022/06/03 12:58:53;;;;;;;3.85;1.15;;;;;;;27.77;35.52;96526.94;5000555;28;20062;-85
2022/06/03 13:01:52;;;;;;;1.95;1.20;;;;;;;27.75;35.36;96521.09;5243015;23;20689;-84
2022/06/03 13:15:59;;;;;;;1.90;1.20;;;;;;;27.74;34.32;96498.03;5636795;23;20062;-83
2022/06/03 15:51:55;;;;;;;2.78;1.63;;;;;;;25.69;44.08;96498.78;5121670;23;20055;-79
2022/06/03 15:54:27;;;;;;;3.15;2.08;;;;;;;25.67;44.08;96495.59;4970179;28;20086;-79
2022/06/03 15:57:23;;;;;;;2.17;1.60;;;;;;;25.68;44.10;96491.81;4976197;28;20050;-79
2022/06/03 16:00:05;;;;;;;6.03;1.80;;;;;;;25.67;44.49;96489.41;5001552;28;20058;-80
2022/06/03 16:02:45;;;;;;;3.60;1.75;;;;;;;25.64;44.05;96480.09;4970229;28;20117;-78
2022/06/03 16:05:18;;;;;;;4.07;1.80;;;;;;;25.62;44.07;96476.91;4989953;28;20050;-79
2022/06/03 16:07:59;;;;;;;3.58;1.90;;;;;;;25.62;44.10;96481.47;4969634;28;20039;-78
2022/06/03 16:22:56;;;;;;;1.95;1.65;;;;;;;25.59;43.12;96511.41;5456460;23;20062;-79
2022/06/03 17:08:36;;;;;;;2.22;1.90;;;;;;;25.30;44.00;96549.56;4974273;28;20046;-80
2022/06/03 17:11:08;;;;;;;2.53;1.85;;;;;;;25.27;43.96;96548.22;4964971;28;20054;-79
2022/06/03 17:13:38;;;;;;;3.65;1.77;;;;;;;25.25;43.75;96563.75;4968690;28;20146;-80
2022/06/03 17:16:06;;;;;;;3.42;1.98;;;;;;;25.22;44.16;96568.81;4965896;28;20516;-80
2022/06/03 17:18:35;;;;;;;3.72;2.00;;;;;;;25.18;43.64;96573.88;4965418;28;20049;-80
2022/06/03 17:21:19;;;;;;;6.10;1.80;;;;;;;25.13;44.07;96575.78;4956877;28;20420;-80
2022/06/03 17:24:15;;;;;;;2.03;1.35;;;;;;;25.07;44.05;96575.81;4956845;28;20142;-80
2022/06/03 17:26:49;;;;;;;1.98;1.65;;;;;;;25.04;44.11;96572.91;4956735;28;20105;-80
2022/06/03 17:29:28;;;;;;;3.65;1.80;;;;;;;24.99;44.53;96575.59;4962908;28;20105;-80
2022/06/03 17:32:00;;;;;;;1.40;1.30;;;;;;;24.94;44.77;96583.63;4967014;28;20469;-80
2022/06/03 17:34:46;;;;;;;9.38;7.55;;;;;;;24.88;44.84;96580.16;4965112;28;20105;-80
2022/06/03 17:37:27;;;;;;;13.32;7.57;;;;;;;24.88;45.17;96582.84;4967075;28;20050;-80
2022/06/03 17:40:04;;;;;;;6.78;3.53;;;;;;;24.86;45.18;96584.97;4956338;28;20051;-80
2022/06/03 17:42:37;;;;;;;2.83;1.90;;;;;;;24.85;45.30;96583.38;4956783;29;20130;-79
2022/06/03 17:45:30;;;;;;;2.40;1.70;;;;;;;24.83;45.39;96591.66;4956588;29;20062;-80
2022/06/03 17:48:10;;;;;;;3.13;1.50;;;;;;;24.80;45.59;96588.75;4947294;29;20143;-80
2022/06/03 17:50:43;;;;;;;2.40;1.60;;;;;;;24.77;45.41;96589.28;4956894;29;20055;-78
2022/06/03 17:56:19;;;;;;;4.80;1.75;;;;;;;24.66;45.64;96588.53;4956487;29;20051;-78
2022/06/03 17:59:02;;;;;;;3.03;1.83;;;;;;;24.64;45.67;96588.81;4956485;29;20141;-78
2022/06/03 18:01:47;;;;;;;1.58;1.48;;;;;;;24.62;45.98;96590.94;4958256;28;20062;-79
2022/06/03 18:04:35;;;;;;;2.08;1.70;;;;;;;24.57;46.06;96601.63;4975580;28;20061;-79
2022/06/03 18:07:23;;;;;;;2.95;1.88;;;;;;;24.53;46.28;96595.22;4977025;28;20050;-79
2022/06/03 18:09:53;;;;;;;2.60;1.48;;;;;;;24.50;46.07;96597.66;4975601;28;20146;-79
2022/06/03 18:12:25;;;;;;;2.17;1.60;;;;;;;24.45;46.52;96603.78;4976590;28;20463;-79
2022/06/03 18:15:16;;;;;;;3.45;1.70;;;;;;;24.38;46.27;96605.91;4975577;28;20568;-78
2022/06/03 18:17:56;;;;;;;1.43;1.33;;;;;;;24.33;46.28;96616.59;4962135;28;20508;-79
2022/06/03 18:20:59;;;;;;;1.95;1.65;;;;;;;24.30;46.66;96625.13;4955942;29;20090;-78
2022/06/03 18:23:47;;;;;;;1.83;1.70;;;;;;;24.19;46.54;96627.78;4956213;29;20170;-78
2022/06/03 18:26:27;;;;;;;3.38;1.75;;;;;;;24.13;46.72;96631.53;4956473;29;20062;-78
2022/06/03 18:29:11;;;;;;;4.78;1.98;;;;;;;24.08;46.98;96628.88;4956386;28;20086;-80
2022/06/03 18:31:56;;;;;;;5.95;1.60;;;;;;;24.04;47.17;96628.59;4966861;28;20082;-80
2022/06/03 18:34:30;;;;;;;9.20;2.20;;;;;;;24.00;47.28;96626.75;4957883;28;20058;-78
2022/06/03 18:37:12;;;;;;;2.83;1.60;;;;;;;23.99;47.50;96627.81;4973418;28;20138;-80
2022/06/03 18:40:21;;;;;;;3.58;2.15;;;;;;;23.95;48.11;96638.19;4964041;28;20083;-80
2022/06/03 18:43:03;;;;;;;2.55;1.55;;;;;;;23.93;48.33;96639.53;4896142;29;20104;-80
2022/06/03 18:45:41;;;;;;;6.15;2.08;;;;;;;23.89;48.99;96625.16;4969567;28;20050;-80
2022/06/03 18:48:20;;;;;;;2.28;1.50;;;;;;;23.82;49.97;96628.88;4961240;28;20114;-79
2022/06/03 18:50:56;;;;;;;3.03;1.60;;;;;;;23.75;49.97;96633.66;4962193;28;20480;-80
2022/06/03 18:53:41;;;;;;;2.08;1.75;;;;;;;23.70;50.59;96635.47;4974333;28;20491;-80
2022/06/03 18:56:43;;;;;;;4.07;1.83;;;;;;;23.66;50.87;96627.25;4974722;28;20451;-80
2022/06/03 18:59:21;;;;;;;;;;;;;;;23.66;49.85;96629.91;4975054;28;20134;-80
2022/06/03 19:01:59;;;;;;;2.88;1.75;;;;;;;23.58;51.01;96627.75;4969858;28;20408;-80
2022/06/03 19:04:45;;;;;;;2.90;1.90;;;;;;;23.52;51.85;96631.47;4969600;28;20063;-80
2022/06/03 19:07:28;;;;;;;5.78;3.97;;;;;;;23.45;52.59;96629.84;4961490;28;20078;-80
2022/06/03 19:10:06;;;;;;;3.95;3.20;;;;;;;23.39;52.62;96627.44;4974324;28;20566;-80
2022/06/03 19:12:53;;;;;;;5.65;2.70;;;;;;;23.32;53.19;96626.91;4970295;28;20055;-80
2022/06/03 19:15:33;;;;;;;3.65;2.55;;;;;;;23.29;53.65;96632.75;4974483;28;20061;-80
2022/06/03 19:18:16;;;;;;;3.47;2.30;;;;;;;23.24;54.07;96628.19;4974550;28;20062;-80
2022/06/03 19:21:02;;;;;;;2.80;2.50;;;;;;;23.15;54.68;96624.47;4974632;28;20074;-80
2022/06/03 19:23:58;;;;;;;3.90;2.53;;;;;;;23.06;54.56;96631.34;4974623;28;20110;-78
2022/06/03 19:26:34;;;;;;;3.20;2.75;;;;;;;22.95;55.87;96636.59;4971948;28;20142;-78
2022/06/03 19:29:08;;;;;;;2.92;2.60;;;;;;;22.89;55.74;96636.81;4974538;28;20102;-80
2022/06/03 19:31:46;;;;;;;2.97;2.55;;;;;;;22.81;56.96;96630.94;4974430;28;20419;-80
2022/06/03 19:34:18;;;;;;;3.53;2.40;;;;;;;22.74;57.18;96641.03;4974087;28;20094;-80
2022/06/03 19:37:00;;;;;;;3.15;2.60;;;;;;;22.66;57.51;96646.03;4974484;28;20064;-79
2022/06/03 19:40:03;;;;;;;5.05;3.10;;;;;;;22.59;58.26;96640.94;4974641;28;20078;-80
2022/06/03 19:43:05;;;;;;;3.28;2.90;;;;;;;22.50;58.39;96648.59;4974063;28;20055;-78
2022/06/03 19:45:41;;;;;;;;;;;;;;;22.44;57.71;96652.28;4974352;28;20055;-80
2022/06/03 19:48:27;;;;;;;6.68;3.20;;;;;;;22.35;58.69;96648.50;4973777;28;20434;-78
2022/06/03 19:51:03;;;;;;;5.60;3.22;;;;;;;22.32;59.52;96643.69;4973569;28;20053;-78
2022/06/03 19:53:55;;;;;;;3.60;3.03;;;;;;;22.27;59.49;96651.63;4964109;28;20453;-80
2022/06/03 19:56:36;;;;;;;4.70;2.80;;;;;;;22.22;60.23;96652.41;4973052;28;20051;-80
2022/06/03 19:59:20;;;;;;;4.47;3.50;;;;;;;22.18;60.25;96652.06;4954635;28;20098;-77
2022/06/03 20:01:55;;;;;;;4.15;3.45;;;;;;;22.09;60.75;96661.56;4976573;28;20077;-80
2022/06/03 20:04:33;;;;;;;5.95;3.45;;;;;;;22.02;61.09;96659.13;4968025;28;20051;-81
2022/06/03 20:07:11;;;;;;;4.80;3.00;;;;;;;21.96;61.00;96659.34;4960203;28;20050;-81
2022/06/03 20:09:47;;;;;;;4.00;3.17;;;;;;;21.95;61.19;96652.41;4976238;28;20053;-79
2022/06/03 20:15:23;;;;;;;5.85;3.40;;;;;;;21.92;61.46;96666.22;4969529;28;20097;-81
2022/06/03 20:17:53;;;;;;;3.30;3.00;;;;;;;21.87;61.44;96666.97;4972930;28;20541;-81
2022/06/03 20:20:32;;;;;;;4.10;2.95;;;;;;;21.83;61.74;96667.72;4972972;28;20059;-81
2022/06/03 20:23:12;;;;;;;3.28;2.90;;;;;;;21.78;61.60;96671.94;4972398;28;20063;-80
2022/06/03 20:25:49;;;;;;;7.53;3.42;;;;;;;21.72;61.25;96677.44;4972308;28;20121;-81
2022/06/03 20:28:31;;;;;;;3.63;3.33;;;;;;;21.64;61.71;96681.34;4972977;28;20051;-80
2022/06/03 20:31:14;;;;;;;4.88;3.17;;;;;;;21.61;61.93;96676.53;4972783;28;20106;-81
2022/06/03 20:33:52;;;;;;;3.50;3.20;;;;;;;21.58;61.57;96688.47;4973564;28;20047;-80
2022/06/03 20:36:25;;;;;;;3.67;3.08;;;;;;;21.57;61.66;96688.72;4965267;28;20141;-79
2022/06/03 20:39:13;;;;;;;5.72;3.22;;;;;;;21.55;62.15;96685.50;4973266;28;20082;-79
2022/06/03 20:41:48;;;;;;;3.80;3.05;;;;;;;21.55;62.12;96693.47;4973426;28;20516;-80
2022/06/03 20:44:53;;;;;;;4.55;3.20;;;;;;;21.57;62.12;96688.72;4974149;28;20483;-80
2022/06/03 20:47:30;;;;;;;14.40;9.40;;;;;;;21.55;61.62;96694.25;4923539;29;20487;-81
2022/06/03 20:50:05;;;;;;;3.83;3.05;;;;;;;21.54;61.20;96692.66;4952251;29;20051;-81
2022/06/03 20:52:37;;;;;;;4.82;3.45;;;;;;;21.55;61.48;96686.28;4952099;29;20134;-81
2022/06/03 20:55:24;;;;;;;2.95;2.63;;;;;;;21.55;61.60;96688.94;4952044;29;20500;-81
2022/06/03 20:57:51;;;;;;;4.82;3.20;;;;;;;21.52;61.36;96688.66;4952304;29;20065;-81
2022/06/03 21:00:30;;;;;;;5.03;3.10;;;;;;;21.51;61.89;96695.00;4952420;29;20136;-81
2022/06/03 21:12:48;;;;;;;4.80;3.63;;;;;;;21.50;61.88;96686.25;4951944;29;20512;-81
2022/06/03 21:14:22;;;;;;;4.25;3.55;;;;;;;21.20;62.37;96676.06;4956646;28;20051;-81
2022/06/03 21:16:49;;;;;;;6.00;3.30;;;;;;;21.12;62.63;96679.13;4957856;29;20051;-81
2022/06/03 21:19:18;;;;;;;6.28;3.53;;;;;;;21.08;63.04;96686.81;4957226;29;20051;-80
2022/06/03 21:21:59;;;;;;;4.15;3.75;;;;;;;21.02;63.58;96684.34;4956689;29;20138;-80
2022/06/03 21:24:34;;;;;;;4.78;3.45;;;;;;;20.95;63.53;96684.53;4957123;29;20134;-80
2022/06/03 21:27:03;;;;;;;5.75;3.85;;;;;;;20.91;63.47;96683.41;4956902;29;20571;-81
2022/06/03 21:29:35;;;;;;;;;;;;;;;20.90;62.87;96681.78;4962115;29;20043;-81
2022/06/03 21:32:35;;;;;;;3.92;3.20;;;;;;;20.88;63.60;96695.31;4957201;29;20296;-81
2022/06/03 21:35:10;;;;;;;6.82;3.35;;;;;;;20.84;63.68;96691.53;4957049;29;20051;-81
2022/06/03 21:37:49;;;;;;;4.93;3.53;;;;;;;20.82;63.99;96698.13;4957938;29;20078;-82
2022/06/03 21:40:24;;;;;;;5.15;3.60;;;;;;;20.80;63.60;96694.94;4958794;29;20078;-82